createdAt,value
2018-08-30T00:00:45.008Z,0.00
2018-08-30T00:01:45.020Z,0.00
2018-08-30T00:02:44.834Z,0.00
2018-08-30T00:03:44.760Z,0.00
2018-08-30T00:04:44.654Z,0.00
2018-08-30T00:05:44.565Z,0.00
2018-08-30T00:06:44.477Z,0.00
2018-08-30T00:07:44.392Z,0.00
2018-08-30T00:08:44.429Z,0.00
2018-08-30T00:09:44.212Z,0.00
2018-08-30T00:10:44.135Z,0.00
2018-08-30T00:11:44.035Z,0.00
2018-08-30T00:12:43.948Z,0.00
2018-08-30T00:13:43.877Z,0.00
2018-08-30T00:14:43.767Z,0.00
2018-08-30T00:15:43.797Z,0.00
2018-08-30T00:16:43.593Z,0.00
2018-08-30T00:17:43.503Z,0.00
2018-08-30T00:18:43.427Z,0.00
2018-08-30T00:19:43.324Z,0.00
2018-08-30T00:20:43.239Z,0.00
2018-08-30T00:21:43.150Z,0.00
2018-08-30T00:22:43.162Z,0.00
2018-08-30T00:23:42.987Z,0.00
2018-08-30T00:24:42.886Z,0.00
2018-08-30T00:25:42.793Z,0.00
2018-08-30T00:26:42.731Z,0.00
2018-08-30T00:27:42.622Z,0.00
2018-08-30T00:28:42.542Z,0.00
2018-08-30T00:29:42.540Z,0.00
2018-08-30T00:30:42.349Z,0.00
2018-08-30T00:31:42.264Z,0.00
2018-08-30T00:32:42.173Z,0.00
2018-08-30T00:33:42.099Z,0.00
2018-08-30T00:34:41.996Z,0.00
2018-08-30T00:35:41.909Z,0.00
2018-08-30T00:36:41.819Z,0.00
2018-08-30T00:37:41.729Z,0.00
2018-08-30T00:38:41.661Z,0.00
2018-08-30T00:39:41.555Z,0.00
2018-08-30T00:40:41.467Z,0.00
2018-08-30T00:41:41.377Z,0.00
2018-08-30T00:42:41.292Z,0.00
2018-08-30T00:43:41.312Z,0.00
2018-08-30T00:44:41.112Z,0.00
2018-08-30T00:45:41.021Z,0.00
2018-08-30T00:46:40.934Z,0.00
2018-08-30T00:47:40.855Z,0.00
2018-08-30T00:48:40.768Z,0.00
2018-08-30T00:49:40.791Z,0.00
2018-08-30T00:50:40.576Z,0.00
2018-08-30T00:51:40.490Z,0.00
2018-08-30T00:52:40.396Z,0.00
2018-08-30T00:53:40.323Z,0.00
2018-08-30T00:54:40.217Z,0.00
2018-08-30T00:55:40.131Z,0.00
2018-08-30T00:56:40.043Z,0.00
2018-08-30T00:57:39.952Z,0.00
2018-08-30T00:58:39.879Z,0.00
2018-08-30T00:59:39.776Z,0.00
2018-08-30T01:00:39.685Z,0.00
2018-08-30T01:01:39.596Z,0.00
2018-08-30T01:02:39.507Z,0.00
2018-08-30T01:03:39.432Z,0.00
2018-08-30T01:04:39.327Z,0.00
2018-08-30T01:05:39.240Z,0.00
2018-08-30T01:06:39.146Z,0.00
2018-08-30T01:07:39.059Z,0.00
2018-08-30T01:08:38.995Z,0.00
2018-08-30T01:09:38.876Z,0.00
2018-08-30T01:10:38.790Z,0.00
2018-08-30T01:11:38.698Z,0.00
2018-08-30T01:12:38.618Z,0.00
2018-08-30T01:13:38.536Z,0.00
2018-08-30T01:14:38.429Z,0.00
2018-08-30T01:15:38.341Z,0.00
2018-08-30T01:16:38.252Z,0.00
2018-08-30T01:17:38.161Z,0.00
2018-08-30T01:18:38.087Z,0.00
2018-08-30T01:19:37.977Z,0.00
2018-08-30T01:20:37.888Z,0.00
2018-08-30T01:21:37.796Z,0.00
2018-08-30T01:22:37.710Z,0.00
2018-08-30T01:23:37.637Z,0.00
2018-08-30T01:24:37.531Z,0.00
2018-08-30T01:25:37.436Z,0.00
2018-08-30T01:26:37.347Z,0.00
2018-08-30T01:27:37.256Z,0.00
2018-08-30T01:28:37.182Z,0.00
2018-08-30T01:29:37.074Z,0.00
2018-08-30T01:30:36.990Z,0.00
2018-08-30T01:31:36.911Z,0.00
2018-08-30T01:32:36.804Z,0.00
2018-08-30T01:33:36.731Z,0.00
2018-08-30T01:34:36.622Z,0.00
2018-08-30T01:35:36.528Z,0.00
2018-08-30T01:36:36.440Z,0.00
2018-08-30T01:37:36.347Z,0.00
2018-08-30T01:38:36.260Z,0.00
2018-08-30T01:39:36.180Z,0.00
2018-08-30T01:40:36.075Z,0.00
2018-08-30T01:41:36.013Z,0.00
2018-08-30T01:42:35.891Z,0.00
2018-08-30T01:43:35.804Z,0.00
2018-08-30T01:44:35.726Z,0.00
2018-08-30T01:45:35.615Z,0.00
2018-08-30T01:46:35.527Z,0.00
2018-08-30T01:47:35.433Z,0.00
2018-08-30T01:48:35.342Z,0.00
2018-08-30T01:49:35.269Z,0.00
2018-08-30T01:50:35.156Z,0.00
2018-08-30T01:51:35.067Z,0.00
2018-08-30T01:52:34.972Z,0.00
2018-08-30T01:53:34.883Z,0.00
2018-08-30T01:54:34.806Z,0.00
2018-08-30T01:55:34.698Z,0.00
2018-08-30T01:56:34.609Z,0.00
2018-08-30T01:57:34.516Z,0.00
2018-08-30T01:58:34.423Z,0.00
2018-08-30T01:59:34.350Z,0.00
2018-08-30T02:00:34.237Z,0.00
2018-08-30T02:01:34.151Z,0.00
2018-08-30T02:02:34.055Z,0.00
2018-08-30T02:03:33.962Z,0.00
2018-08-30T02:04:33.886Z,0.00
2018-08-30T02:05:33.777Z,0.00
2018-08-30T02:06:33.686Z,0.00
2018-08-30T02:07:33.594Z,0.00
2018-08-30T02:08:33.504Z,0.00
2018-08-30T02:09:33.428Z,0.00
2018-08-30T02:10:33.320Z,0.00
2018-08-30T02:11:33.227Z,0.00
2018-08-30T02:12:33.141Z,0.00
2018-08-30T02:13:33.042Z,0.00
2018-08-30T02:14:32.967Z,0.00
2018-08-30T02:15:32.858Z,0.00
2018-08-30T02:16:32.772Z,0.00
2018-08-30T02:17:32.675Z,0.00
2018-08-30T02:18:32.588Z,0.00
2018-08-30T02:19:32.510Z,0.00
2018-08-30T02:20:32.405Z,0.00
2018-08-30T02:21:32.310Z,0.00
2018-08-30T02:22:32.216Z,0.00
2018-08-30T02:23:32.124Z,0.00
2018-08-30T02:24:32.060Z,0.00
2018-08-30T02:25:31.940Z,0.00
2018-08-30T02:26:31.852Z,0.00
2018-08-30T02:27:31.759Z,0.00
2018-08-30T02:28:31.959Z,0.00
2018-08-30T02:29:31.592Z,0.00
2018-08-30T02:30:31.485Z,0.00
2018-08-30T02:31:31.394Z,0.00
2018-08-30T02:32:31.300Z,0.00
2018-08-30T02:33:31.221Z,0.00
2018-08-30T02:34:31.136Z,0.00
2018-08-30T02:35:31.133Z,0.00
2018-08-30T02:36:30.937Z,0.00
2018-08-30T02:37:30.846Z,0.00
2018-08-30T02:38:30.751Z,0.00
2018-08-30T02:39:30.680Z,0.00
2018-08-30T02:40:30.566Z,0.00
2018-08-30T02:41:30.478Z,0.00
2018-08-30T02:42:30.501Z,0.00
2018-08-30T02:43:30.295Z,0.00
2018-08-30T02:44:30.221Z,0.00
2018-08-30T02:45:30.111Z,0.00
2018-08-30T02:46:30.020Z,0.00
2018-08-30T02:47:29.929Z,0.00
2018-08-30T02:48:29.836Z,0.00
2018-08-30T02:49:29.866Z,0.00
2018-08-30T02:50:29.655Z,0.00
2018-08-30T02:51:29.561Z,0.00
2018-08-30T02:52:29.472Z,0.00
2018-08-30T02:53:29.384Z,0.00
2018-08-30T02:54:29.301Z,0.00
2018-08-30T02:55:29.199Z,0.00
2018-08-30T02:56:29.204Z,0.00
2018-08-30T02:57:29.022Z,0.00
2018-08-30T02:58:28.924Z,0.00
2018-08-30T02:59:28.849Z,0.00
2018-08-30T03:00:28.739Z,0.00
2018-08-30T03:01:28.648Z,0.00
2018-08-30T03:02:28.558Z,0.00
2018-08-30T03:03:28.574Z,0.00
2018-08-30T03:04:28.393Z,0.00
2018-08-30T03:05:28.281Z,0.00
2018-08-30T03:06:28.191Z,0.00
2018-08-30T03:07:28.104Z,0.00
2018-08-30T03:08:28.010Z,0.00
2018-08-30T03:09:27.931Z,0.00
2018-08-30T03:10:27.924Z,0.00
2018-08-30T03:11:27.732Z,0.00
2018-08-30T03:12:27.642Z,0.00
2018-08-30T03:13:27.551Z,0.00
2018-08-30T03:14:27.465Z,0.00
2018-08-30T03:15:27.384Z,0.00
2018-08-30T03:16:27.282Z,0.00
2018-08-30T03:17:27.285Z,0.00
2018-08-30T03:18:27.094Z,0.00
2018-08-30T03:19:27.026Z,0.00
2018-08-30T03:20:26.915Z,0.00
2018-08-30T03:21:26.823Z,0.00
2018-08-30T03:22:26.732Z,0.00
2018-08-30T03:23:26.636Z,0.00
2018-08-30T03:24:26.680Z,0.00
2018-08-30T03:25:26.456Z,0.00
2018-08-30T03:26:26.365Z,0.00
2018-08-30T03:27:26.275Z,0.00
2018-08-30T03:28:26.184Z,0.00
2018-08-30T03:29:26.093Z,0.00
2018-08-30T03:30:26.233Z,0.00
2018-08-30T03:31:26.019Z,0.00
2018-08-30T03:32:25.818Z,0.00
2018-08-30T03:33:25.731Z,0.00
2018-08-30T03:34:25.636Z,0.00
2018-08-30T03:35:25.561Z,0.00
2018-08-30T03:36:25.458Z,0.00
2018-08-30T03:37:25.364Z,0.00
2018-08-30T03:38:25.269Z,0.00
2018-08-30T03:39:25.186Z,0.00
2018-08-30T03:40:25.109Z,0.00
2018-08-30T03:41:25.002Z,0.00
2018-08-30T03:42:24.905Z,0.00
2018-08-30T03:43:24.816Z,0.00
2018-08-30T03:44:24.726Z,0.00
2018-08-30T03:45:24.650Z,0.00
2018-08-30T03:46:24.549Z,0.00
2018-08-30T03:47:24.451Z,0.00
2018-08-30T03:48:24.362Z,0.00
2018-08-30T03:49:24.271Z,0.00
2018-08-30T03:50:24.196Z,0.00
2018-08-30T03:51:24.090Z,0.00
2018-08-30T03:52:23.999Z,0.00
2018-08-30T03:53:23.905Z,0.00
2018-08-30T03:54:23.817Z,0.00
2018-08-30T03:55:23.744Z,0.00
2018-08-30T03:56:23.632Z,0.00
2018-08-30T03:57:23.544Z,0.00
2018-08-30T03:58:23.455Z,0.00
2018-08-30T03:59:23.360Z,0.00
2018-08-30T04:00:23.293Z,0.00
2018-08-30T04:01:23.184Z,0.00
2018-08-30T04:02:23.089Z,4.00
2018-08-30T04:03:23.001Z,4.00
2018-08-30T04:04:23.041Z,4.00
2018-08-30T04:05:22.835Z,0.00
2018-08-30T04:06:22.727Z,4.00
2018-08-30T04:07:22.638Z,8.00
2018-08-30T04:08:22.546Z,8.00
2018-08-30T04:09:22.458Z,8.00
2018-08-30T04:10:22.385Z,12.00
2018-08-30T04:11:22.281Z,16.00
2018-08-30T04:12:22.183Z,24.00
2018-08-30T04:13:22.155Z,32.00
2018-08-30T04:14:22.002Z,36.00
2018-08-30T04:15:21.930Z,36.00
2018-08-30T04:16:21.824Z,44.00
2018-08-30T04:17:21.727Z,52.00
2018-08-30T04:18:21.641Z,60.00
2018-08-30T04:19:21.550Z,72.00
2018-08-30T04:20:21.474Z,92.00
2018-08-30T04:21:21.369Z,108.00
2018-08-30T04:22:21.276Z,128.00
2018-08-30T04:23:21.187Z,148.00
2018-08-30T04:24:21.095Z,168.00
2018-08-30T04:25:21.022Z,184.00
2018-08-30T04:26:20.912Z,208.00
2018-08-30T04:27:20.824Z,216.00
2018-08-30T04:28:20.734Z,216.00
2018-08-30T04:29:20.643Z,192.00
2018-08-30T04:30:20.571Z,176.00
2018-08-30T04:31:20.475Z,180.00
2018-08-30T04:32:20.373Z,220.00
2018-08-30T04:33:20.279Z,264.00
2018-08-30T04:34:20.192Z,288.00
2018-08-30T04:35:20.120Z,260.00
2018-08-30T04:36:20.016Z,272.00
2018-08-30T04:37:19.930Z,200.00
2018-08-30T04:38:19.830Z,224.00
2018-08-30T04:39:19.745Z,256.00
2018-08-30T04:40:19.665Z,212.00
2018-08-30T04:41:19.556Z,236.00
2018-08-30T04:42:19.503Z,284.00
2018-08-30T04:43:19.380Z,260.00
2018-08-30T04:44:19.287Z,224.00
2018-08-30T04:45:19.215Z,180.00
2018-08-30T04:46:19.121Z,172.00
2018-08-30T04:47:19.014Z,216.00
2018-08-30T04:48:18.925Z,316.00
2018-08-30T04:49:18.835Z,288.00
2018-08-30T04:50:18.827Z,264.00
2018-08-30T04:51:18.653Z,240.00
2018-08-30T04:52:18.564Z,240.00
2018-08-30T04:53:18.469Z,296.00
2018-08-30T04:54:18.484Z,360.00
2018-08-30T04:55:18.309Z,536.00
2018-08-30T04:56:18.222Z,632.00
2018-08-30T04:57:18.115Z,656.00
2018-08-30T04:58:18.019Z,644.00
2018-08-30T04:59:17.931Z,544.00
2018-08-30T05:00:17.861Z,540.00
2018-08-30T05:01:17.751Z,572.00
2018-08-30T05:02:17.661Z,440.00
2018-08-30T05:03:17.570Z,460.00
2018-08-30T05:04:17.481Z,440.00
2018-08-30T05:05:17.404Z,476.00
2018-08-30T05:06:17.298Z,428.00
2018-08-30T05:07:17.208Z,432.00
2018-08-30T05:08:17.217Z,396.00
2018-08-30T05:09:17.034Z,416.00
2018-08-30T05:10:16.944Z,488.00
2018-08-30T05:11:16.865Z,712.00
2018-08-30T05:12:16.758Z,896.00
2018-08-30T05:13:16.665Z,796.00
2018-08-30T05:14:16.578Z,748.00
2018-08-30T05:15:16.589Z,860.00
2018-08-30T05:16:16.419Z,784.00
2018-08-30T05:17:16.305Z,704.00
2018-08-30T05:18:16.228Z,648.00
2018-08-30T05:19:16.127Z,752.00
2018-08-30T05:20:16.042Z,652.00
2018-08-30T05:21:15.962Z,680.00
2018-08-30T05:22:15.956Z,748.00
2018-08-30T05:23:15.765Z,884.00
2018-08-30T05:24:15.673Z,1072.00
2018-08-30T05:25:15.587Z,900.00
2018-08-30T05:26:15.513Z,1108.00
2018-08-30T05:27:15.403Z,1316.00
2018-08-30T05:28:15.313Z,1324.00
2018-08-30T05:29:15.335Z,1860.00
2018-08-30T05:30:15.136Z,2604.00
2018-08-30T05:31:15.062Z,2560.00
2018-08-30T05:32:14.952Z,2620.00
2018-08-30T05:33:14.863Z,2528.00
2018-08-30T05:34:14.776Z,2164.00
2018-08-30T05:35:14.682Z,1368.00
2018-08-30T05:36:14.711Z,1108.00
2018-08-30T05:37:14.503Z,1144.00
2018-08-30T05:38:14.414Z,1000.00
2018-08-30T05:39:14.339Z,768.00
2018-08-30T05:40:14.234Z,768.00
2018-08-30T05:41:14.155Z,772.00
2018-08-30T05:42:14.050Z,748.00
2018-08-30T05:43:14.061Z,676.00
2018-08-30T05:44:13.869Z,708.00
2018-08-30T05:45:13.778Z,632.00
2018-08-30T05:46:13.710Z,652.00
2018-08-30T05:47:13.603Z,816.00
2018-08-30T05:48:13.513Z,800.00
2018-08-30T05:49:13.419Z,1220.00
2018-08-30T05:50:13.445Z,1392.00
2018-08-30T05:51:13.257Z,2188.00
2018-08-30T05:52:13.149Z,2756.00
2018-08-30T05:53:13.071Z,2012.00
2018-08-30T05:54:12.976Z,1744.00
2018-08-30T05:55:12.882Z,1056.00
2018-08-30T05:56:12.807Z,1144.00
2018-08-30T05:57:12.803Z,1276.00
2018-08-30T05:58:12.611Z,1812.00
2018-08-30T05:59:12.517Z,3004.00
2018-08-30T06:00:12.427Z,2356.00
2018-08-30T06:01:12.354Z,2848.00
2018-08-30T06:02:12.244Z,3292.00
2018-08-30T06:03:12.157Z,4136.00
2018-08-30T06:04:12.167Z,4324.00
2018-08-30T06:05:11.976Z,4124.00
2018-08-30T06:06:11.899Z,3420.00
2018-08-30T06:07:11.801Z,2656.00
2018-08-30T06:08:11.718Z,2100.00
2018-08-30T06:09:11.615Z,3452.00
2018-08-30T06:10:11.534Z,3168.00
2018-08-30T06:11:11.559Z,2968.00
2018-08-30T06:12:11.341Z,3068.00
2018-08-30T06:13:11.391Z,3088.00
2018-08-30T06:14:11.161Z,2464.00
2018-08-30T06:15:11.070Z,2788.00
2018-08-30T06:16:10.996Z,2920.00
2018-08-30T06:17:10.894Z,2904.00
2018-08-30T06:18:10.902Z,2552.00
2018-08-30T06:19:10.709Z,2460.00
2018-08-30T06:20:10.617Z,2272.00
2018-08-30T06:21:10.543Z,2472.00
2018-08-30T06:22:10.438Z,2472.00
2018-08-30T06:23:10.349Z,2300.00
2018-08-30T06:24:10.258Z,2260.00
2018-08-30T06:25:10.167Z,2232.00
2018-08-30T06:26:10.101Z,2484.00
2018-08-30T06:27:09.985Z,2340.00
2018-08-30T06:28:09.893Z,2140.00
2018-08-30T06:29:09.821Z,2036.00
2018-08-30T06:30:09.713Z,2000.00
2018-08-30T06:31:09.638Z,1864.00
2018-08-30T06:32:09.531Z,1828.00
2018-08-30T06:33:09.439Z,1776.00
2018-08-30T06:34:09.389Z,1852.00
2018-08-30T06:35:09.274Z,1960.00
2018-08-30T06:36:09.186Z,2208.00
2018-08-30T06:37:09.078Z,2396.00
2018-08-30T06:38:09.000Z,2468.00
2018-08-30T06:39:08.895Z,2520.00
2018-08-30T06:40:08.808Z,2600.00
2018-08-30T06:41:08.730Z,2772.00
2018-08-30T06:42:08.626Z,3004.00
2018-08-30T06:43:08.534Z,3036.00
2018-08-30T06:44:08.446Z,3320.00
2018-08-30T06:45:08.354Z,3868.00
2018-08-30T06:46:08.282Z,3964.00
2018-08-30T06:47:08.170Z,4040.00
2018-08-30T06:48:08.080Z,4220.00
2018-08-30T06:49:08.028Z,4496.00
2018-08-30T06:50:07.900Z,4420.00
2018-08-30T06:51:07.823Z,4508.00
2018-08-30T06:52:07.715Z,4448.00
2018-08-30T06:53:07.625Z,4644.00
2018-08-30T06:54:07.536Z,5236.00
2018-08-30T06:55:07.447Z,6532.00
2018-08-30T06:56:07.373Z,6524.00
2018-08-30T06:57:07.264Z,5532.00
2018-08-30T06:58:07.174Z,5188.00
2018-08-30T06:59:07.082Z,5256.00
2018-08-30T07:00:06.993Z,6168.00
2018-08-30T07:01:06.905Z,7748.00
2018-08-30T07:02:06.828Z,9416.00
2018-08-30T07:03:06.721Z,10288.00
2018-08-30T07:04:06.672Z,10816.00
2018-08-30T07:05:06.539Z,10732.00
2018-08-30T07:06:06.449Z,9596.00
2018-08-30T07:07:06.376Z,9324.00
2018-08-30T07:08:06.300Z,10200.00
2018-08-30T07:09:06.177Z,10936.00
2018-08-30T07:10:06.085Z,11992.00
2018-08-30T07:11:06.000Z,12540.00
2018-08-30T07:12:05.921Z,12808.00
2018-08-30T07:13:05.813Z,12904.00
2018-08-30T07:14:05.723Z,13028.00
2018-08-30T07:15:05.671Z,11960.00
2018-08-30T07:16:05.557Z,11808.00
2018-08-30T07:17:05.468Z,12612.00
2018-08-30T07:18:05.360Z,12368.00
2018-08-30T07:19:05.271Z,11608.00
2018-08-30T07:20:05.182Z,11816.00
2018-08-30T07:21:05.152Z,11744.00
2018-08-30T07:22:05.018Z,12388.00
2018-08-30T07:23:04.911Z,11820.00
2018-08-30T07:24:04.874Z,10464.00
2018-08-30T07:25:04.730Z,9072.00
2018-08-30T07:26:04.640Z,8940.00
2018-08-30T07:27:04.569Z,8612.00
2018-08-30T07:28:04.465Z,7300.00
2018-08-30T07:29:04.371Z,5388.00
2018-08-30T07:30:04.283Z,5312.00
2018-08-30T07:31:04.189Z,4028.00
2018-08-30T07:32:04.119Z,3836.00
2018-08-30T07:33:04.007Z,3544.00
2018-08-30T07:34:03.921Z,3880.00
2018-08-30T07:35:03.939Z,4212.00
2018-08-30T07:36:03.740Z,3348.00
2018-08-30T07:37:03.667Z,2652.00
2018-08-30T07:38:03.565Z,2508.00
2018-08-30T07:39:03.470Z,2572.00
2018-08-30T07:40:03.382Z,3052.00
2018-08-30T07:41:03.390Z,3852.00
2018-08-30T07:42:03.214Z,4236.00
2018-08-30T07:43:03.109Z,4236.00
2018-08-30T07:44:03.085Z,4604.00
2018-08-30T07:45:02.926Z,3476.00
2018-08-30T07:46:02.836Z,3544.00
2018-08-30T07:47:02.761Z,3368.00
2018-08-30T07:48:02.656Z,4004.00
2018-08-30T07:49:02.565Z,4536.00
2018-08-30T07:50:02.484Z,3880.00
2018-08-30T07:51:02.442Z,4148.00
2018-08-30T07:52:02.327Z,4720.00
2018-08-30T07:53:02.203Z,4800.00
2018-08-30T07:54:02.116Z,4556.00
2018-08-30T07:55:02.139Z,4660.00
2018-08-30T07:56:01.934Z,5144.00
2018-08-30T07:57:01.855Z,5848.00
2018-08-30T07:58:01.752Z,6480.00
2018-08-30T07:59:01.662Z,6284.00
2018-08-30T08:00:01.645Z,6732.00
2018-08-30T08:01:01.483Z,6568.00
2018-08-30T08:02:01.508Z,6508.00
2018-08-30T08:03:01.297Z,6448.00
2018-08-30T08:04:01.210Z,7244.00
2018-08-30T08:05:01.114Z,6364.00
2018-08-30T08:06:01.092Z,5360.00
2018-08-30T08:07:00.968Z,5376.00
2018-08-30T08:08:00.845Z,5376.00
2018-08-30T08:09:00.853Z,5612.00
2018-08-30T08:10:00.662Z,6172.00
2018-08-30T08:11:00.574Z,5780.00
2018-08-30T08:12:00.562Z,5780.00
2018-08-30T08:13:00.390Z,5712.00
2018-08-30T08:14:00.301Z,5788.00
2018-08-30T08:15:00.231Z,5804.00
2018-08-30T08:16:00.220Z,5956.00
2018-08-30T08:17:00.044Z,6508.00
2018-08-30T08:17:59.935Z,7316.00
2018-08-30T08:18:59.864Z,8988.00
2018-08-30T08:19:59.759Z,10072.00
2018-08-30T08:20:59.665Z,10800.00
2018-08-30T08:21:59.593Z,14200.00
2018-08-30T08:22:59.481Z,13416.00
2018-08-30T08:23:59.494Z,14248.00
2018-08-30T08:24:59.301Z,16260.00
2018-08-30T08:25:59.214Z,12212.00
2018-08-30T08:26:59.137Z,10244.00
2018-08-30T08:27:59.033Z,8916.00
2018-08-30T08:28:58.941Z,7384.00
2018-08-30T08:29:58.850Z,6452.00
2018-08-30T08:30:58.860Z,6092.00
2018-08-30T08:31:58.685Z,5436.00
2018-08-30T08:32:58.578Z,5576.00
2018-08-30T08:33:58.487Z,5208.00
2018-08-30T08:34:58.398Z,4660.00
2018-08-30T08:35:58.306Z,3756.00
2018-08-30T08:36:58.235Z,3596.00
2018-08-30T08:37:58.231Z,3752.00
2018-08-30T08:38:58.036Z,3260.00
2018-08-30T08:39:57.950Z,4348.00
2018-08-30T08:40:57.860Z,3764.00
2018-08-30T08:41:57.783Z,4076.00
2018-08-30T08:42:57.675Z,4376.00
2018-08-30T08:43:57.584Z,4172.00
2018-08-30T08:44:57.592Z,4860.00
2018-08-30T08:45:57.403Z,4692.00
2018-08-30T08:46:57.337Z,5620.00
2018-08-30T08:47:57.242Z,5968.00
2018-08-30T08:48:57.133Z,6628.00
2018-08-30T08:49:57.044Z,6808.00
2018-08-30T08:50:56.950Z,6640.00
2018-08-30T08:51:56.969Z,6832.00
2018-08-30T08:52:56.785Z,8792.00
2018-08-30T08:53:56.679Z,10252.00
2018-08-30T08:54:56.590Z,11956.00
2018-08-30T08:55:56.500Z,14452.00
2018-08-30T08:56:56.422Z,15288.00
2018-08-30T08:57:56.337Z,16980.00
2018-08-30T08:58:56.407Z,15748.00
2018-08-30T08:59:56.141Z,16684.00
2018-08-30T09:00:56.044Z,16732.00
2018-08-30T09:01:55.955Z,14288.00
2018-08-30T09:02:55.900Z,13624.00
2018-08-30T09:03:55.778Z,15032.00
2018-08-30T09:04:55.688Z,15772.00
2018-08-30T09:05:55.594Z,16112.00
2018-08-30T09:06:55.540Z,17632.00
2018-08-30T09:07:55.457Z,11572.00
2018-08-30T09:08:55.326Z,10196.00
2018-08-30T09:09:55.232Z,11188.00
2018-08-30T09:10:55.146Z,14744.00
2018-08-30T09:11:55.054Z,20352.00
2018-08-30T09:12:54.985Z,18496.00
2018-08-30T09:13:54.876Z,21856.00
2018-08-30T09:14:54.787Z,17504.00
2018-08-30T09:15:54.697Z,13924.00
2018-08-30T09:16:54.603Z,11768.00
2018-08-30T09:17:54.544Z,19328.00
2018-08-30T09:18:54.425Z,16800.00
2018-08-30T09:19:54.476Z,18528.00
2018-08-30T09:20:54.246Z,21664.00
2018-08-30T09:21:54.157Z,27488.00
2018-08-30T09:22:54.146Z,29312.00
2018-08-30T09:23:53.976Z,23648.00
2018-08-30T09:24:53.883Z,17760.00
2018-08-30T09:25:53.796Z,14884.00
2018-08-30T09:26:53.779Z,10636.00
2018-08-30T09:27:53.635Z,11680.00
2018-08-30T09:28:53.527Z,12712.00
2018-08-30T09:29:53.436Z,10024.00
2018-08-30T09:30:53.393Z,12528.00
2018-08-30T09:31:53.260Z,10112.00
2018-08-30T09:32:53.191Z,9684.00
2018-08-30T09:33:53.104Z,11096.00
2018-08-30T09:34:52.993Z,11000.00
2018-08-30T09:35:52.900Z,18944.00
2018-08-30T09:36:52.812Z,14588.00
2018-08-30T09:37:52.741Z,15000.00
2018-08-30T09:38:52.635Z,17144.00
2018-08-30T09:39:52.545Z,19136.00
2018-08-30T09:40:52.455Z,12428.00
2018-08-30T09:41:52.366Z,14024.00
2018-08-30T09:42:52.293Z,14340.00
2018-08-30T09:43:52.211Z,9500.00
2018-08-30T09:44:52.097Z,7644.00
2018-08-30T09:45:52.004Z,7864.00
2018-08-30T09:46:51.917Z,10040.00
2018-08-30T09:47:51.847Z,8060.00
2018-08-30T09:48:51.736Z,8872.00
2018-08-30T09:49:51.675Z,8956.00
2018-08-30T09:50:51.561Z,8068.00
2018-08-30T09:51:51.476Z,7460.00
2018-08-30T09:52:51.398Z,7324.00
2018-08-30T09:53:51.288Z,9652.00
2018-08-30T09:54:51.200Z,9836.00
2018-08-30T09:55:51.225Z,12372.00
2018-08-30T09:56:51.104Z,12720.00
2018-08-30T09:57:50.958Z,13212.00
2018-08-30T09:58:50.837Z,11536.00
2018-08-30T09:59:50.747Z,12520.00
2018-08-30T10:00:50.662Z,13280.00
2018-08-30T10:01:50.571Z,10648.00
2018-08-30T10:02:50.496Z,10716.00
2018-08-30T10:03:50.508Z,14284.00
2018-08-30T10:04:50.365Z,14752.00
2018-08-30T10:05:50.211Z,13152.00
2018-08-30T10:06:50.120Z,14508.00
2018-08-30T10:07:50.047Z,22176.00
2018-08-30T10:08:49.938Z,19264.00
2018-08-30T10:09:49.849Z,15168.00
2018-08-30T10:10:49.760Z,16892.00
2018-08-30T10:11:49.676Z,11556.00
2018-08-30T10:12:49.596Z,11868.00
2018-08-30T10:13:49.490Z,12352.00
2018-08-30T10:14:49.405Z,11404.00
2018-08-30T10:15:49.323Z,10608.00
2018-08-30T10:16:49.221Z,9776.00
2018-08-30T10:17:49.153Z,13012.00
2018-08-30T10:18:49.043Z,12320.00
2018-08-30T10:19:48.953Z,7088.00
2018-08-30T10:20:48.862Z,8036.00
2018-08-30T10:21:48.772Z,5912.00
2018-08-30T10:22:48.698Z,5340.00
2018-08-30T10:23:48.593Z,5376.00
2018-08-30T10:24:48.503Z,6284.00
2018-08-30T10:25:48.414Z,7704.00
2018-08-30T10:26:48.323Z,8932.00
2018-08-30T10:27:48.274Z,8476.00
2018-08-30T10:28:48.248Z,8244.00
2018-08-30T10:29:48.054Z,7844.00
2018-08-30T10:30:47.966Z,7436.00
2018-08-30T10:31:47.875Z,7560.00
2018-08-30T10:32:47.793Z,6004.00
2018-08-30T10:33:47.716Z,5584.00
2018-08-30T10:34:47.611Z,6124.00
2018-08-30T10:35:47.619Z,5764.00
2018-08-30T10:36:47.431Z,8488.00
2018-08-30T10:37:47.339Z,10192.00
2018-08-30T10:38:47.263Z,10884.00
2018-08-30T10:39:47.157Z,12360.00
2018-08-30T10:40:47.066Z,10604.00
2018-08-30T10:41:46.976Z,9580.00
2018-08-30T10:42:47.012Z,12220.00
2018-08-30T10:43:46.816Z,12816.00
2018-08-30T10:44:46.709Z,12152.00
2018-08-30T10:45:46.619Z,11736.00
2018-08-30T10:46:46.526Z,12652.00
2018-08-30T10:47:46.440Z,11692.00
2018-08-30T10:48:46.363Z,11296.00
2018-08-30T10:49:46.392Z,8072.00
2018-08-30T10:50:46.168Z,5840.00
2018-08-30T10:51:46.083Z,8336.00
2018-08-30T10:52:45.989Z,8144.00
2018-08-30T10:53:45.931Z,6976.00
2018-08-30T10:54:45.811Z,6068.00
2018-08-30T10:55:45.722Z,9060.00
2018-08-30T10:56:45.731Z,11716.00
2018-08-30T10:57:45.538Z,9116.00
2018-08-30T10:58:45.466Z,7008.00
2018-08-30T10:59:45.360Z,5964.00
2018-08-30T11:00:45.272Z,4420.00
2018-08-30T11:01:45.179Z,4560.00
2018-08-30T11:02:45.092Z,6224.00
2018-08-30T11:03:45.118Z,6208.00
2018-08-30T11:04:44.908Z,8044.00
2018-08-30T11:05:44.821Z,7172.00
2018-08-30T11:06:44.730Z,6892.00
2018-08-30T11:07:44.640Z,5616.00
2018-08-30T11:08:44.564Z,7560.00
2018-08-30T11:09:44.462Z,6616.00
2018-08-30T11:10:44.469Z,10268.00
2018-08-30T11:11:44.281Z,11376.00
2018-08-30T11:12:44.230Z,10460.00
2018-08-30T11:13:44.114Z,7504.00
2018-08-30T11:14:44.008Z,6936.00
2018-08-30T11:15:43.918Z,6844.00
2018-08-30T11:16:43.835Z,6392.00
2018-08-30T11:17:43.834Z,5380.00
2018-08-30T11:18:43.664Z,6276.00
2018-08-30T11:19:43.558Z,5776.00
2018-08-30T11:20:43.517Z,4800.00
2018-08-30T11:21:43.393Z,4828.00
2018-08-30T11:22:43.285Z,4636.00
2018-08-30T11:23:43.213Z,4580.00
2018-08-30T11:24:43.204Z,4372.00
2018-08-30T11:25:43.016Z,4736.00
2018-08-30T11:26:42.923Z,4344.00
2018-08-30T11:27:42.843Z,3736.00
2018-08-30T11:28:42.765Z,3684.00
2018-08-30T11:29:42.651Z,3172.00
2018-08-30T11:30:42.560Z,3420.00
2018-08-30T11:31:42.567Z,3732.00
2018-08-30T11:32:42.379Z,2664.00
2018-08-30T11:33:42.303Z,3108.00
2018-08-30T11:34:42.199Z,3732.00
2018-08-30T11:35:42.105Z,4872.00
2018-08-30T11:36:42.018Z,6476.00
2018-08-30T11:37:41.966Z,6264.00
2018-08-30T11:38:41.850Z,7204.00
2018-08-30T11:39:41.744Z,7224.00
2018-08-30T11:40:41.654Z,6500.00
2018-08-30T11:41:41.656Z,7004.00
2018-08-30T11:42:41.470Z,5900.00
2018-08-30T11:43:41.392Z,6764.00
2018-08-30T11:44:41.287Z,7488.00
2018-08-30T11:45:41.194Z,5500.00
2018-08-30T11:46:41.102Z,5308.00
2018-08-30T11:47:41.013Z,7460.00
2018-08-30T11:48:40.939Z,6472.00
2018-08-30T11:49:40.829Z,7536.00
2018-08-30T11:50:40.735Z,5656.00
2018-08-30T11:51:40.649Z,3980.00
2018-08-30T11:52:40.623Z,3236.00
2018-08-30T11:53:40.482Z,3724.00
2018-08-30T11:54:40.376Z,4664.00
2018-08-30T11:55:40.282Z,4636.00
2018-08-30T11:56:40.195Z,4412.00
2018-08-30T11:57:40.098Z,4180.00
2018-08-30T11:58:40.025Z,4124.00
2018-08-30T11:59:39.918Z,3100.00
2018-08-30T12:00:39.828Z,3380.00
2018-08-30T12:01:39.731Z,4684.00
2018-08-30T12:02:39.641Z,4596.00
2018-08-30T12:03:39.570Z,5344.00
2018-08-30T12:04:39.459Z,4920.00
2018-08-30T12:05:39.368Z,5568.00
2018-08-30T12:06:39.278Z,5572.00
2018-08-30T12:07:39.183Z,7280.00
2018-08-30T12:08:39.109Z,8412.00
2018-08-30T12:09:39.000Z,9024.00
2018-08-30T12:10:38.943Z,7472.00
2018-08-30T12:11:38.873Z,5792.00
2018-08-30T12:12:38.731Z,5452.00
2018-08-30T12:13:38.652Z,4304.00
2018-08-30T12:14:38.546Z,6520.00
2018-08-30T12:15:38.453Z,6656.00
2018-08-30T12:16:38.362Z,5216.00
2018-08-30T12:17:38.271Z,5248.00
2018-08-30T12:18:38.209Z,4032.00
2018-08-30T12:19:38.086Z,4336.00
2018-08-30T12:20:38.074Z,4232.00
2018-08-30T12:21:37.907Z,4888.00
2018-08-30T12:22:37.812Z,4740.00
2018-08-30T12:23:37.724Z,5340.00
2018-08-30T12:24:37.648Z,5464.00
2018-08-30T12:25:37.538Z,6032.00
2018-08-30T12:26:37.450Z,5164.00